Time;durP1;ratioP1;P1;durP2;ratioP2;P2;SDS_P1;SDS_P2;PMS_P1;PMS_P2;Temp;Humidity;BMP_temperature;BMP_pressure;BME280_temperature;BME280_humidity;BME280_pressure;Samples;Min_cycle;Max_cycle;Signal;HPM_P1;HPM_P2
2024/03/09 00:01:05;;;;;;;;;;;;;;;7.31;51.14;98860.94;4130520;28;19952;-72
2024/03/09 00:03:07;;;;;;;;;;;;;;;7.07;51.92;98858.91;4146101;28;20607;-71
2024/03/09 00:05:07;;;;;;;;;;;;;;;7.07;52.11;98858.91;4145504;28;19909;-72
2024/03/09 00:07:08;;;;;;;;;;;;;;;7.31;51.76;98865.44;4130015;28;19913;-71
2024/03/09 00:09:09;;;;;;;;;;;;;;;7.21;51.71;98862.84;4145502;28;19913;-71
2024/03/09 00:11:09;;;;;;;;;;;;;;;7.21;51.86;98864.69;4130364;28;19917;-71
2024/03/09 00:13:10;;;;;;;;;;;;;;;7.23;52.14;98858.22;4130807;28;20000;-72
2024/03/09 00:15:15;;;;;;;;;;;;;;;7.24;51.97;98854.56;4145200;28;19913;-71
2024/03/09 00:17:16;;;;;;;;;;;;;;;7.39;51.81;98862.00;4130508;28;19924;-71
2024/03/09 00:19:18;;;;;;;;;;;;;;;7.36;51.82;98860.50;4145714;28;19916;-71
2024/03/09 00:21:18;;;;;;;;;;;;;;;7.37;51.64;98854.19;4131017;28;19910;-71
2024/03/09 00:23:20;;;;;;;;;;;;;;;7.45;51.67;98861.41;4130493;28;19906;-71
2024/03/09 00:25:22;;;;;;;;;;;;;;;7.33;51.87;98863.44;4130288;28;20388;-72
2024/03/09 00:27:25;;;;;;;;;;;;;;;7.43;51.59;98866.03;4145681;28;20300;-72
2024/03/09 00:29:25;;;;;;;;;;;;;;;7.17;52.36;98864.97;4130545;28;19909;-70
2024/03/09 00:31:26;;;;;;;;;;;;;;;7.33;52.16;98868.75;4133702;28;19916;-71
2024/03/09 00:33:27;;;;;;;;;;;;;;;7.32;52.15;98875.09;4148530;28;19910;-72
2024/03/09 00:35:27;;;;;;;;;;;;;;;7.16;52.50;98878.44;4133872;28;19916;-72
2024/03/09 00:37:30;;;;;;;;;;;;;;;7.30;52.28;98880.53;4133213;28;19917;-70
2024/03/09 00:39:30;;;;;;;;;;;;;;;7.34;52.22;98871.28;4133875;28;19909;-72
2024/03/09 00:41:31;;;;;;;;;;;;;;;7.23;52.37;98871.50;4134119;28;19909;-71
2024/03/09 00:43:35;;;;;;;;;;;;;;;7.20;52.79;98882.44;4133093;28;20432;-72
2024/03/09 00:45:36;;;;;;;;;;;;;;;7.27;52.55;98878.22;4149030;28;19913;-71
2024/03/09 00:47:37;;;;;;;;;;;;;;;7.24;52.68;98881.16;4132410;28;20005;-71
2024/03/09 00:49:39;;;;;;;;;;;;;;;7.31;52.61;98879.56;4133530;28;19909;-71
2024/03/09 00:51:39;;;;;;;;;;;;;;;7.31;52.45;98868.91;4133475;28;20374;-71
2024/03/09 00:53:40;;;;;;;;;;;;;;;7.18;52.80;98871.09;4133248;28;19976;-71
2024/03/09 00:55:41;;;;;;;;;;;;;;;7.11;53.03;98870.91;4148341;28;19910;-71
2024/03/09 00:57:42;;;;;;;;;;;;;;;7.00;53.54;98879.09;4133527;28;19932;-71
2024/03/09 00:59:44;;;;;;;;;;;;;;;7.02;53.48;98869.97;4133812;28;20655;-71
2024/03/09 01:01:44;;;;;;;;;;;;;;;6.95;53.49;98871.56;4133231;28;19965;-71
2024/03/09 01:03:45;;;;;;;;;;;;;;;7.00;53.68;98874.59;4133294;28;19909;-71
2024/03/09 01:05:46;;;;;;;;;;;;;;;7.14;53.19;98867.09;4133599;28;20119;-71
2024/03/09 01:07:46;;;;;;;;;;;;;;;7.16;53.14;98865.97;4132618;28;19939;-71
2024/03/09 01:09:50;;;;;;;;;;;;;;;6.88;53.80;98862.53;4133653;28;19914;-71
2024/03/09 01:11:50;;;;;;;;;;;;;;;6.72;54.37;98863.19;4133575;28;19947;-71
2024/03/09 01:13:51;;;;;;;;;;;;;;;6.68;54.56;98860.00;4147927;28;19913;-71
2024/03/09 01:15:52;;;;;;;;;;;;;;;6.78;54.49;98851.13;4132028;28;19972;-71
2024/03/09 01:17:53;;;;;;;;;;;;;;;6.59;54.87;98847.63;4148428;28;19913;-70
2024/03/09 01:19:53;;;;;;;;;;;;;;;6.48;55.24;98847.81;4133794;28;19986;-70
2024/03/09 01:21:59;;;;;;;;;;;;;;;6.57;55.01;98836.28;4134367;28;19916;-71
2024/03/09 01:24:01;;;;;;;;;;;;;;;6.54;55.28;98836.59;4134093;28;19909;-70
2024/03/09 01:26:02;;;;;;;;;;;;;;;6.29;55.86;98832.78;4133130;28;19941;-70
2024/03/09 01:28:02;;;;;;;;;;;;;;;6.22;56.33;98832.56;4133151;28;20437;-71
2024/03/09 01:30:05;;;;;;;;;;;;;;;6.24;56.47;98830.59;4133167;28;19943;-70
2024/03/09 01:32:06;;;;;;;;;;;;;;;6.21;56.51;98833.56;4133649;28;20394;-70
2024/03/09 01:34:06;;;;;;;;;;;;;;;6.28;56.31;98829.31;4132623;28;19913;-71
2024/03/09 01:36:07;;;;;;;;;;;;;;;6.20;56.53;98827.38;4148526;28;19939;-71
2024/03/09 01:38:09;;;;;;;;;;;;;;;6.15;56.81;98823.50;4131961;28;20008;-71
2024/03/09 01:40:10;;;;;;;;;;;;;;;6.30;56.82;98826.50;4148239;28;19909;-70
2024/03/09 01:42:11;;;;;;;;;;;;;;;6.33;56.39;98829.69;4132460;28;20539;-71
2024/03/09 01:44:11;;;;;;;;;;;;;;;6.26;56.80;98833.94;4132965;28;20000;-71
2024/03/09 01:46:12;;;;;;;;;;;;;;;6.30;56.46;98819.41;4133159;28;20432;-70
2024/03/09 01:48:13;;;;;;;;;;;;;;;6.25;56.72;98832.25;4147633;28;20625;-71
2024/03/09 01:50:14;;;;;;;;;;;;;;;6.32;56.63;98833.38;4132962;28;19920;-72
2024/03/09 01:52:14;;;;;;;;;;;;;;;6.22;56.78;98832.56;4132790;28;20273;-71
2024/03/09 01:54:23;;;;;;;;;;;;;;;6.39;56.60;98838.91;4132465;28;19910;-71
2024/03/09 01:56:27;;;;;;;;;;;;;;;6.50;56.35;98830.75;4134407;28;19910;-71
2024/03/09 01:58:29;;;;;;;;;;;;;;;6.68;55.83;98833.44;4159459;28;20082;-70
2024/03/09 02:00:30;;;;;;;;;;;;;;;6.72;55.87;98824.16;4147826;28;19909;-71
2024/03/09 02:02:31;;;;;;;;;;;;;;;6.64;55.81;98826.75;4135939;28;20318;-70
2024/03/09 02:04:31;;;;;;;;;;;;;;;6.75;55.77;98830.19;4132837;28;20428;-71
2024/03/09 02:06:32;;;;;;;;;;;;;;;6.47;56.01;98827.56;4132337;28;19925;-71
2024/03/09 02:08:33;;;;;;;;;;;;;;;6.51;56.38;98827.09;4147053;28;19925;-72
2024/03/09 02:10:34;;;;;;;;;;;;;;;6.42;56.49;98833.31;4132443;28;19917;-70
2024/03/09 02:12:35;;;;;;;;;;;;;;;6.49;56.62;98839.69;4132749;28;19909;-70
2024/03/09 02:14:38;;;;;;;;;;;;;;;6.45;56.66;98834.81;4132591;28;19914;-70
2024/03/09 02:16:38;;;;;;;;;;;;;;;6.18;56.88;98832.03;4147587;28;19909;-70
2024/03/09 02:18:45;;;;;;;;;;;;;;;6.22;57.18;98824.59;4132224;28;19964;-70
2024/03/09 02:20:50;;;;;;;;;;;;;;;6.24;57.22;98825.28;4150334;28;20254;-71
2024/03/09 02:22:50;;;;;;;;;;;;;;;6.47;56.72;98817.75;4131656;28;19910;-70
2024/03/09 02:24:57;;;;;;;;;;;;;;;6.40;56.89;98814.03;4132142;28;20551;-70
2024/03/09 02:26:59;;;;;;;;;;;;;;;6.58;56.32;98808.75;4132385;28;20285;-70
2024/03/09 02:28:59;;;;;;;;;;;;;;;6.55;56.66;98806.41;4132874;28;19913;-70
2024/03/09 02:31:00;;;;;;;;;;;;;;;6.49;56.58;98804.34;4132179;28;19916;-71
2024/03/09 02:33:04;;;;;;;;;;;;;;;6.64;56.21;98802.84;4132628;28;19917;-70
2024/03/09 02:35:04;;;;;;;;;;;;;;;6.61;55.87;98789.88;4132028;28;19953;-73
2024/03/09 02:37:05;;;;;;;;;;;;;;;6.55;56.19;98801.09;4132247;28;19921;-69
2024/03/09 02:39:09;;;;;;;;;;;;;;;6.58;56.25;98787.53;4132202;28;19956;-71
2024/03/09 02:41:09;;;;;;;;;;;;;;;6.55;56.34;98793.97;4132126;28;20007;-70
2024/03/09 02:43:11;;;;;;;;;;;;;;;6.27;56.89;98802.94;4132436;28;19909;-71
2024/03/09 02:45:11;;;;;;;;;;;;;;;6.33;56.97;98795.19;4131024;28;20382;-71
2024/03/09 02:47:12;;;;;;;;;;;;;;;6.03;57.50;98804.28;4138888;28;19952;-71
2024/03/09 02:49:12;;;;;;;;;;;;;;;5.88;58.03;98787.97;4116305;28;19910;-71
2024/03/09 02:51:13;;;;;;;;;;;;;;;5.92;58.10;98789.38;4115995;28;19965;-71
2024/03/09 02:53:13;;;;;;;;;;;;;;;5.90;58.20;98791.31;4129968;28;19910;-71
2024/03/09 02:55:15;;;;;;;;;;;;;;;5.84;58.37;98794.56;4115394;28;20004;-70
2024/03/09 02:57:16;;;;;;;;;;;;;;;6.11;57.93;98791.13;4121414;28;20373;-71
2024/03/09 02:59:18;;;;;;;;;;;;;;;6.30;57.30;98787.53;4131065;28;19910;-71
2024/03/09 03:01:20;;;;;;;;;;;;;;;6.33;57.05;98787.22;4131867;28;19949;-71
2024/03/09 03:05:42;;;;;;;;;;;;;;;6.41;56.76;98794.47;4131937;28;19916;-71
2024/03/09 03:07:43;;;;;;;;;;;;;;;6.22;57.38;98787.47;4131819;28;19961;-71
2024/03/09 03:09:48;;;;;;;;;;;;;;;6.24;57.40;98788.97;4131381;28;19910;-71
2024/03/09 03:11:49;;;;;;;;;;;;;;;6.24;57.56;98782.81;4131557;28;19933;-71
2024/03/09 03:13:49;;;;;;;;;;;;;;;6.43;56.90;98787.19;4131470;28;20282;-71
2024/03/09 03:15:50;;;;;;;;;;;;;;;6.42;56.75;98790.81;4132179;28;19910;-71
2024/03/09 03:17:51;;;;;;;;;;;;;;;6.51;56.48;98791.75;4131621;28;19920;-71
2024/03/09 03:19:51;;;;;;;;;;;;;;;6.38;56.68;98789.44;4132090;28;19910;-71
2024/03/09 03:21:51;;;;;;;;;;;;;;;6.25;57.33;98789.78;4131940;28;19909;-70
2024/03/09 03:23:52;;;;;;;;;;;;;;;6.33;57.00;98786.41;4146242;28;20633;-71
2024/03/09 03:25:53;;;;;;;;;;;;;;;6.37;56.74;98785.13;4130349;28;19998;-70
2024/03/09 03:27:54;;;;;;;;;;;;;;;6.23;57.24;98791.78;4146264;28;19925;-70
2024/03/09 03:29:56;;;;;;;;;;;;;;;6.24;57.24;98788.97;4130025;28;19914;-70
2024/03/09 03:31:58;;;;;;;;;;;;;;;6.31;57.15;98785.72;4146513;28;20504;-70
2024/03/09 03:34:00;;;;;;;;;;;;;;;6.34;57.01;98783.59;4130680;28;19910;-70
2024/03/09 03:36:01;;;;;;;;;;;;;;;6.36;56.94;98772.84;4130938;28;19918;-70
2024/03/09 03:38:02;;;;;;;;;;;;;;;6.43;56.67;98781.03;4131259;28;19914;-70
2024/03/09 03:40:06;;;;;;;;;;;;;;;6.29;56.92;98777.91;4146532;28;19913;-70
2024/03/09 03:42:07;;;;;;;;;;;;;;;6.27;57.16;98769.25;4130162;28;19929;-71
2024/03/09 03:44:09;;;;;;;;;;;;;;;6.40;56.89;98768.91;4131094;28;19937;-71
2024/03/09 03:46:13;;;;;;;;;;;;;;;6.40;56.79;98767.09;4131298;28;19909;-71
2024/03/09 03:48:16;;;;;;;;;;;;;;;6.18;57.29;98765.69;4132473;28;20058;-71
2024/03/09 03:50:17;;;;;;;;;;;;;;;6.23;57.11;98758.09;4143148;28;19935;-71
2024/03/09 03:52:17;;;;;;;;;;;;;;;6.09;57.55;98759.44;4142879;28;20609;-70
2024/03/09 03:54:18;;;;;;;;;;;;;;;6.13;57.56;98751.19;4141131;28;19960;-72
2024/03/09 03:56:24;;;;;;;;;;;;;;;6.01;57.76;98745.22;4141699;28;19958;-72
2024/03/09 03:58:26;;;;;;;;;;;;;;;5.84;58.49;98746.81;4142061;28;19913;-71
2024/03/09 04:00:26;;;;;;;;;;;;;;;5.75;58.60;98735.25;4141933;28;19960;-71
2024/03/09 04:02:26;;;;;;;;;;;;;;;5.77;58.80;98728.81;4142903;28;19914;-69
2024/03/09 04:04:27;;;;;;;;;;;;;;;5.76;58.89;98721.84;4130704;28;19909;-70
2024/03/09 04:06:28;;;;;;;;;;;;;;;5.76;58.91;98716.53;4130504;28;19963;-70
2024/03/09 04:08:28;;;;;;;;;;;;;;;5.69;59.07;98717.28;4145857;28;20350;-70
2024/03/09 04:10:28;;;;;;;;;;;;;;;5.80;59.05;98710.97;4130235;28;20263;-70
2024/03/09 04:12:29;;;;;;;;;;;;;;;5.79;58.82;98710.13;4130775;28;19910;-70
2024/03/09 04:14:30;;;;;;;;;;;;;;;5.61;59.41;98707.41;4130629;28;20004;-69
2024/03/09 04:16:31;;;;;;;;;;;;;;;5.57;59.68;98706.03;4130395;28;19960;-70
2024/03/09 04:18:33;;;;;;;;;;;;;;;5.69;59.41;98710.16;4130719;28;20321;-70
2024/03/09 04:20:34;;;;;;;;;;;;;;;5.85;59.18;98716.66;4131008;28;19936;-70
2024/03/09 04:22:34;;;;;;;;;;;;;;;5.81;59.26;98712.63;4131154;28;20729;-70
2024/03/09 04:24:35;;;;;;;;;;;;;;;5.78;58.94;98698.66;4130678;28;19941;-71
2024/03/09 04:26:36;;;;;;;;;;;;;;;5.85;58.72;98704.22;4130729;28;19943;-70
2024/03/09 04:28:37;;;;;;;;;;;;;;;5.75;59.13;98698.13;4130962;28;19913;-70
2024/03/09 04:30:37;;;;;;;;;;;;;;;5.66;59.37;98694.56;4130799;28;19909;-70
2024/03/09 04:32:38;;;;;;;;;;;;;;;5.68;59.24;98689.91;4134788;28;19910;-70
2024/03/09 04:34:40;;;;;;;;;;;;;;;5.80;59.15;98684.44;4141684;28;19937;-70
2024/03/09 04:36:40;;;;;;;;;;;;;;;5.73;59.30;98681.53;4139390;28;20370;-70
2024/03/09 04:38:40;;;;;;;;;;;;;;;5.88;58.58;98696.00;4130407;28;20015;-70
2024/03/09 04:40:43;;;;;;;;;;;;;;;5.81;58.73;98694.06;4130188;28;19910;-70
2024/03/09 04:42:46;;;;;;;;;;;;;;;6.14;58.32;98686.53;4129333;28;19910;-71
2024/03/09 04:44:46;;;;;;;;;;;;;;;6.06;58.01;98681.94;4129939;28;20358;-70
2024/03/09 04:46:47;;;;;;;;;;;;;;;5.74;59.03;98672.59;4130346;28;19963;-70
2024/03/09 04:48:47;;;;;;;;;;;;;;;5.81;58.96;98675.50;4130701;28;19986;-70
2024/03/09 04:50:48;;;;;;;;;;;;;;;5.94;58.80;98676.00;4129196;28;19910;-70
2024/03/09 04:52:49;;;;;;;;;;;;;;;5.77;59.08;98678.44;4130522;28;19914;-70
2024/03/09 04:54:49;;;;;;;;;;;;;;;5.69;59.45;98683.63;4130066;28;20397;-70
2024/03/09 04:56:49;;;;;;;;;;;;;;;5.86;58.90;98666.13;4130293;28;19992;-70
2024/03/09 04:58:50;;;;;;;;;;;;;;;5.94;58.79;98678.66;4130457;28;19914;-73
2024/03/09 05:00:50;;;;;;;;;;;;;;;5.69;59.30;98681.00;4132775;28;19913;-70
2024/03/09 05:02:51;;;;;;;;;;;;;;;5.92;59.02;98673.47;4133148;28;19916;-71
2024/03/09 05:04:51;;;;;;;;;;;;;;;5.73;59.02;98679.72;4132144;28;20029;-72
2024/03/09 05:06:51;;;;;;;;;;;;;;;5.78;59.52;98677.47;4140060;28;19920;-72
2024/03/09 05:08:55;;;;;;;;;;;;;;;5.93;58.74;98671.66;4143588;28;19989;-71
2024/03/09 05:10:55;;;;;;;;;;;;;;;5.99;58.64;98663.13;4142047;28;19944;-71
2024/03/09 05:12:56;;;;;;;;;;;;;;;5.96;58.79;98659.91;4141620;28;19909;-71
2024/03/09 05:14:58;;;;;;;;;;;;;;;6.05;58.38;98662.53;4141479;28;20436;-71
2024/03/09 05:16:58;;;;;;;;;;;;;;;5.98;58.76;98658.78;4136146;28;19910;-71
2024/03/09 05:18:59;;;;;;;;;;;;;;;6.03;58.38;98653.91;4133941;28;19910;-70
2024/03/09 05:21:00;;;;;;;;;;;;;;;5.92;59.09;98654.91;4133350;28;20009;-70
2024/03/09 05:23:06;;;;;;;;;;;;;;;5.97;58.94;98659.75;4133601;28;19964;-70
2024/03/09 05:25:13;;;;;;;;;;;;;;;5.71;59.54;98657.81;4132141;28;19910;-73
2024/03/09 05:27:13;;;;;;;;;;;;;;;5.60;59.84;98656.22;4148257;28;20012;-72
2024/03/09 05:29:13;;;;;;;;;;;;;;;5.62;60.16;98650.75;4133115;28;19913;-70
2024/03/09 05:31:26;;;;;;;;;;;;;;;5.57;60.10;98637.94;4133219;28;19988;-70
2024/03/09 05:33:27;;;;;;;;;;;;;;;5.41;60.53;98638.56;4132867;28;20365;-71
2024/03/09 05:35:28;;;;;;;;;;;;;;;5.71;60.25;98620.69;4142076;28;19960;-70
2024/03/09 05:37:29;;;;;;;;;;;;;;;5.56;60.21;98609.75;4132161;28;19933;-73
2024/03/09 05:39:29;;;;;;;;;;;;;;;5.45;60.77;98589.59;4132694;28;20285;-71
2024/03/09 05:41:29;;;;;;;;;;;;;;;5.52;60.70;98587.19;4132519;28;19909;-70
2024/03/09 05:43:29;;;;;;;;;;;;;;;5.53;60.82;98590.66;4131513;28;19924;-70
2024/03/09 05:45:30;;;;;;;;;;;;;;;5.80;60.15;98596.91;4134361;28;19909;-71
2024/03/09 05:47:30;;;;;;;;;;;;;;;5.97;59.74;98598.75;4132334;28;19913;-73
2024/03/09 05:49:31;;;;;;;;;;;;;;;6.13;59.45;98608.72;4133779;28;20019;-70
2024/03/09 05:51:31;;;;;;;;;;;;;;;6.32;58.62;98605.09;4132977;28;19916;-71
2024/03/09 05:53:34;;;;;;;;;;;;;;;6.04;59.25;98605.19;4132541;28;20346;-70
2024/03/09 05:55:35;;;;;;;;;;;;;;;5.70;60.18;98589.03;4132495;28;20274;-69
2024/03/09 05:57:35;;;;;;;;;;;;;;;5.63;60.62;98584.31;4132625;28;19910;-70
2024/03/09 05:59:35;;;;;;;;;;;;;;;5.82;60.48;98584.34;4132748;28;20000;-71
2024/03/09 06:01:35;;;;;;;;;;;;;;;5.80;60.16;98594.25;4132659;28;19914;-71
2024/03/09 06:03:39;;;;;;;;;;;;;;;5.65;60.73;98593.94;4132456;28;19977;-71
2024/03/09 06:05:42;;;;;;;;;;;;;;;5.81;60.47;98598.59;4132598;28;19909;-73
2024/03/09 06:07:44;;;;;;;;;;;;;;;5.65;61.10;98594.78;4147457;28;19913;-71
2024/03/09 06:09:47;;;;;;;;;;;;;;;5.38;61.69;98585.88;4132228;28;19914;-71
2024/03/09 06:11:49;;;;;;;;;;;;;;;5.44;62.13;98590.56;4131612;28;19948;-71
2024/03/09 06:13:50;;;;;;;;;;;;;;;5.46;62.39;98593.91;4131697;28;19921;-71
2024/03/09 06:15:50;;;;;;;;;;;;;;;5.53;61.82;98603.91;4130547;28;19984;-71
2024/03/09 06:17:53;;;;;;;;;;;;;;;5.57;61.70;98600.00;4131661;28;20036;-72
2024/03/09 06:19:54;;;;;;;;;;;;;;;5.65;61.38;98607.19;4132570;28;20341;-71
2024/03/09 06:21:54;;;;;;;;;;;;;;;5.60;61.77;98604.97;4147416;28;20025;-71
2024/03/09 06:23:55;;;;;;;;;;;;;;;5.90;61.27;98616.25;4131910;28;19920;-71
2024/03/09 06:25:56;;;;;;;;;;;;;;;6.01;60.66;98613.44;4132161;28;19910;-71
2024/03/09 06:27:57;;;;;;;;;;;;;;;6.04;60.54;98612.28;4131536;28;19914;-72
2024/03/09 06:29:59;;;;;;;;;;;;;;;5.90;60.94;98603.81;4131827;28;19916;-71
2024/03/09 06:31:59;;;;;;;;;;;;;;;5.88;60.97;98602.31;4132850;28;19914;-71
2024/03/09 06:33:59;;;;;;;;;;;;;;;5.84;61.45;98591.16;4132544;28;19932;-71
2024/03/09 06:36:04;;;;;;;;;;;;;;;5.91;61.34;98602.84;4133304;28;19957;-71
2024/03/09 06:38:06;;;;;;;;;;;;;;;6.22;60.86;98597.19;4133077;28;19910;-73
2024/03/09 06:40:06;;;;;;;;;;;;;;;6.23;60.42;98609.47;4134001;28;20020;-71
2024/03/09 06:42:09;;;;;;;;;;;;;;;6.45;59.84;98627.75;4133172;28;19913;-72
2024/03/09 06:44:14;;;;;;;;;;;;;;;6.49;59.81;98637.09;4133449;28;19928;-72
2024/03/09 06:46:14;;;;;;;;;;;;;;;6.64;59.41;98638.19;4133202;28;19910;-72
2024/03/09 06:48:23;;;;;;;;;;;;;;;6.69;58.94;98649.19;4133004;28;19914;-72
2024/03/09 06:50:23;;;;;;;;;;;;;;;6.67;59.02;98645.00;4148376;28;19914;-72
2024/03/09 06:52:24;;;;;;;;;;;;;;;6.81;58.88;98647.13;4133804;28;19909;-71
2024/03/09 06:54:24;;;;;;;;;;;;;;;6.80;58.62;98645.44;4132628;28;19920;-71
2024/03/09 06:56:26;;;;;;;;;;;;;;;6.78;58.84;98654.56;4130905;28;19917;-71
2024/03/09 06:58:29;;;;;;;;;;;;;;;6.86;58.64;98650.13;4131381;28;19910;-71
2024/03/09 07:00:29;;;;;;;;;;;;;;;6.56;59.33;98664.69;4131584;28;20325;-70
2024/03/09 07:02:30;;;;;;;;;;;;;;;6.76;58.94;98652.06;4131658;28;19968;-72
2024/03/09 07:04:31;;;;;;;;;;;;;;;6.74;58.99;98654.06;4131382;28;19909;-71
2024/03/09 07:06:32;;;;;;;;;;;;;;;6.56;59.26;98664.69;4131490;28;19910;-71
2024/03/09 07:08:33;;;;;;;;;;;;;;;6.49;59.63;98679.56;4131950;28;19940;-71
2024/03/09 07:10:34;;;;;;;;;;;;;;;6.77;59.16;98687.44;4132521;28;19910;-71
2024/03/09 07:12:41;;;;;;;;;;;;;;;6.83;58.89;98681.50;4130894;28;19917;-71
2024/03/09 07:14:45;;;;;;;;;;;;;;;6.97;58.61;98675.63;4131596;28;19909;-71
2024/03/09 07:16:46;;;;;;;;;;;;;;;7.00;58.13;98672.66;4131141;28;20274;-71
2024/03/09 07:18:47;;;;;;;;;;;;;;;7.11;58.14;98676.03;4146468;28;20456;-71
2024/03/09 07:20:47;;;;;;;;;;;;;;;7.24;57.64;98683.59;4131347;28;19964;-72
2024/03/09 07:22:49;;;;;;;;;;;;;;;7.30;57.60;98689.13;4146002;28;19909;-71
2024/03/09 07:24:51;;;;;;;;;;;;;;;6.89;58.35;98694.19;4129385;28;20393;-72
2024/03/09 07:26:51;;;;;;;;;;;;;;;7.09;58.39;98696.63;4131500;28;19921;-71
2024/03/09 07:28:54;;;;;;;;;;;;;;;7.31;57.37;98692.63;4131871;28;19914;-71
2024/03/09 07:30:55;;;;;;;;;;;;;;;7.29;57.31;98695.44;4130637;28;20412;-71
2024/03/09 07:32:55;;;;;;;;;;;;;;;7.44;56.64;98694.88;4130883;28;19914;-71
2024/03/09 07:34:56;;;;;;;;;;;;;;;7.38;56.58;98691.00;4128871;28;19922;-70
2024/03/09 07:36:56;;;;;;;;;;;;;;;7.26;56.77;98698.44;4129633;28;19925;-71
2024/03/09 07:38:57;;;;;;;;;;;;;;;7.37;56.68;98685.84;4129998;28;20366;-70
2024/03/09 07:40:57;;;;;;;;;;;;;;;7.15;56.52;98680.06;4129638;28;19948;-71
2024/03/09 07:43:01;;;;;;;;;;;;;;;7.27;56.66;98678.81;4131485;28;19909;-70
2024/03/09 07:45:02;;;;;;;;;;;;;;;7.42;56.34;98680.88;4130933;28;20000;-70
2024/03/09 07:47:02;;;;;;;;;;;;;;;7.20;56.86;98685.75;4130377;28;20384;-71
2024/03/09 07:49:02;;;;;;;;;;;;;;;7.36;56.41;98676.22;4138789;28;20378;-70
2024/03/09 07:51:03;;;;;;;;;;;;;;;7.47;56.12;98676.78;4130591;28;20243;-71
2024/03/09 07:53:06;;;;;;;;;;;;;;;7.62;56.00;98668.19;4130464;28;19956;-71
2024/03/09 07:55:08;;;;;;;;;;;;;;;7.60;55.62;98673.66;4130816;28;19910;-70
2024/03/09 07:57:08;;;;;;;;;;;;;;;7.82;55.25;98679.41;4145680;28;19909;-71
2024/03/09 07:59:08;;;;;;;;;;;;;;;7.72;55.23;98682.19;4130970;28;19920;-70
2024/03/09 08:01:09;;;;;;;;;;;;;;;7.70;55.34;98684.16;4130565;28;19909;-72
2024/03/09 08:03:10;;;;;;;;;;;;;;;7.47;55.77;98689.22;4130826;28;19916;-71
2024/03/09 08:05:14;;;;;;;;;;;;;;;7.61;55.48;98693.97;4130249;28;19909;-71
2024/03/09 08:07:14;;;;;;;;;;;;;;;7.73;55.37;98688.38;4130203;28;19910;-70
2024/03/09 08:09:15;;;;;;;;;;;;;;;7.83;54.86;98682.91;4145519;28;20612;-72
2024/03/09 08:11:17;;;;;;;;;;;;;;;7.94;54.62;98678.13;4130594;28;19956;-72
2024/03/09 08:13:19;;;;;;;;;;;;;;;7.99;54.80;98666.97;4145196;28;19960;-70
2024/03/09 08:15:19;;;;;;;;;;;;;;;8.08;54.52;98670.50;4130115;28;20400;-71
2024/03/09 08:17:20;;;;;;;;;;;;;;;8.19;54.22;98672.88;4130473;28;19910;-71
2024/03/09 08:19:21;;;;;;;;;;;;;;;8.26;54.13;98676.53;4130137;28;20293;-70
2024/03/09 08:21:24;;;;;;;;;;;;;;;8.24;53.74;98675.88;4145399;28;19909;-71
2024/03/09 08:23:24;;;;;;;;;;;;;;;7.86;54.27;98672.75;4130049;28;20520;-70
2024/03/09 08:25:27;;;;;;;;;;;;;;;7.71;54.78;98677.03;4130383;28;19920;-70
2024/03/09 08:27:27;;;;;;;;;;;;;;;7.67;54.87;98679.19;4122556;28;19988;-70
2024/03/09 08:29:31;;;;;;;;;;;;;;;8.09;54.35;98674.84;4130433;28;19936;-72
2024/03/09 08:31:31;;;;;;;;;;;;;;;8.63;53.42;98676.28;4130779;28;20425;-71
2024/03/09 08:33:32;;;;;;;;;;;;;;;8.54;52.98;98668.28;4130570;28;19960;-72
2024/03/09 08:35:33;;;;;;;;;;;;;;;8.42;53.30;98678.41;4130186;28;19913;-72
2024/03/09 08:37:34;;;;;;;;;;;;;;;8.78;52.86;98663.97;4129798;28;19981;-71
2024/03/09 08:39:35;;;;;;;;;;;;;;;8.79;52.18;98667.47;4130606;28;20401;-71
2024/03/09 08:41:36;;;;;;;;;;;;;;;9.19;51.74;98663.91;4130400;28;19910;-71
2024/03/09 08:43:36;;;;;;;;;;;;;;;9.50;50.80;98665.00;4130271;28;20045;-70
2024/03/09 08:45:36;;;;;;;;;;;;;;;9.25;51.03;98667.75;4130319;28;20262;-71
2024/03/09 08:47:37;;;;;;;;;;;;;;;9.69;49.99;98658.44;4143680;28;19914;-71
2024/03/09 08:49:39;;;;;;;;;;;;;;;9.70;49.98;98653.94;4129142;28;19953;-72
2024/03/09 08:51:39;;;;;;;;;;;;;;;9.94;49.76;98650.31;4130213;28;19917;-70
2024/03/09 08:53:41;;;;;;;;;;;;;;;10.14;49.16;98640.84;4133626;28;20358;-71
2024/03/09 08:55:43;;;;;;;;;;;;;;;10.72;48.27;98640.47;4135404;28;19960;-70
2024/03/09 08:57:49;;;;;;;;;;;;;;;11.01;47.48;98646.91;4136054;28;19910;-71
2024/03/09 08:59:52;;;;;;;;;;;;;;;11.30;47.13;98639.94;4151339;28;19953;-71
2024/03/09 09:01:52;;;;;;;;;;;;;;;11.44;46.02;98640.09;4139907;28;19917;-72
2024/03/09 09:03:54;;;;;;;;;;;;;;;11.75;46.10;98631.03;4147759;28;19914;-72
2024/03/09 09:05:55;;;;;;;;;;;;;;;12.17;45.30;98634.88;4157469;28;19910;-70
2024/03/09 09:07:56;;;;;;;;;;;;;;;12.31;44.36;98628.59;4143548;28;19925;-70
2024/03/09 09:09:56;;;;;;;;;;;;;;;12.10;44.70;98628.56;4150000;28;19910;-71
2024/03/09 09:11:56;;;;;;;;;;;;;;;12.12;45.14;98632.75;4149054;28;19952;-71
2024/03/09 09:13:56;;;;;;;;;;;;;;;12.51;44.29;98635.19;4146939;28;20243;-72
2024/03/09 09:15:58;;;;;;;;;;;;;;;12.30;44.15;98628.81;4144647;28;19937;-71
2024/03/09 09:17:58;;;;;;;;;;;;;;;12.04;44.84;98630.19;4147286;28;19909;-71
2024/03/09 09:19:58;;;;;;;;;;;;;;;11.86;45.06;98627.88;4158274;28;19933;-70
2024/03/09 09:21:59;;;;;;;;;;;;;;;11.67;45.33;98624.78;4139449;28;19910;-70
2024/03/09 09:23:59;;;;;;;;;;;;;;;12.22;45.22;98621.72;4136728;28;20008;-70
2024/03/09 09:26:01;;;;;;;;;;;;;;;12.51;44.12;98619.13;4149998;28;19909;-69
2024/03/09 09:28:02;;;;;;;;;;;;;;;12.74;43.90;98616.22;4133858;28;19964;-70
2024/03/09 09:30:02;;;;;;;;;;;;;;;12.90;43.40;98615.94;4133989;28;20401;-70
2024/03/09 09:32:04;;;;;;;;;;;;;;;13.19;42.89;98605.16;4133216;28;19917;-70
2024/03/09 09:34:04;;;;;;;;;;;;;;;13.63;42.01;98605.84;4133034;28;20263;-70
2024/03/09 09:36:05;;;;;;;;;;;;;;;14.07;41.47;98606.44;4133278;28;19925;-70
2024/03/09 09:38:05;;;;;;;;;;;;;;;14.09;41.37;98601.69;4133201;28;19953;-72
2024/03/09 09:40:07;;;;;;;;;;;;;;;14.47;40.05;98601.13;4132594;28;19921;-70
2024/03/09 09:42:09;;;;;;;;;;;;;;;14.03;41.27;98595.25;4136800;28;20271;-71
2024/03/09 09:44:11;;;;;;;;;;;;;;;13.27;42.29;98595.13;4136861;28;20004;-70
2024/03/09 09:46:12;;;;;;;;;;;;;;;13.77;41.67;98594.16;4133971;28;19910;-70
2024/03/09 09:48:14;;;;;;;;;;;;;;;13.81;41.77;98584.66;4134205;28;19964;-70
2024/03/09 09:50:21;;;;;;;;;;;;;;;13.69;41.66;98572.84;4133176;28;19960;-70
2024/03/09 09:52:23;;;;;;;;;;;;;;;14.00;41.34;98568.78;4132906;28;19975;-69
2024/03/09 09:54:26;;;;;;;;;;;;;;;13.99;41.10;98569.81;4132382;28;19910;-69
2024/03/09 09:56:27;;;;;;;;;;;;;;;14.23;41.01;98570.28;4148997;28;20016;-70
2024/03/09 09:58:27;;;;;;;;;;;;;;;14.20;40.89;98552.72;4133355;28;19909;-70
2024/03/09 10:00:27;;;;;;;;;;;;;;;14.51;41.14;98554.81;4148776;28;19909;-69
2024/03/09 10:02:29;;;;;;;;;;;;;;;14.83;39.52;98556.88;4133561;28;19917;-70
2024/03/09 10:04:30;;;;;;;;;;;;;;;15.08;39.68;98546.28;4133581;28;19910;-70
2024/03/09 10:06:30;;;;;;;;;;;;;;;14.74;39.76;98548.19;4147351;28;19961;-71
2024/03/09 10:08:46;;;;;;;;;;;;;;;14.94;39.55;98536.56;4132189;28;19913;-70
2024/03/09 10:10:50;;;;;;;;;;;;;;;15.07;39.28;98541.94;4132893;28;19909;-70
2024/03/09 10:13:02;;;;;;;;;;;;;;;14.27;40.72;98532.03;4132823;28;19976;-70
2024/03/09 10:15:23;;;;;;;;;;;;;;;13.71;42.14;98547.44;4132101;28;19917;-70
2024/03/09 10:17:23;;;;;;;;;;;;;;;14.08;41.45;98536.34;4131060;28;19914;-71
2024/03/09 10:19:24;;;;;;;;;;;;;;;13.46;42.72;98535.59;4132862;28;19909;-71
2024/03/09 10:21:37;;;;;;;;;;;;;;;14.21;41.38;98535.56;4132535;28;20324;-70
2024/03/09 10:23:38;;;;;;;;;;;;;;;14.00;41.61;98531.16;4146867;28;19909;-71
2024/03/09 10:25:39;;;;;;;;;;;;;;;13.59;42.41;98513.31;4131148;28;20028;-70
2024/03/09 10:27:39;;;;;;;;;;;;;;;13.82;42.42;98519.16;4133579;28;19914;-70
2024/03/09 10:29:40;;;;;;;;;;;;;;;14.23;42.02;98509.28;4133972;28;19916;-71
2024/03/09 10:31:43;;;;;;;;;;;;;;;13.77;42.43;98518.94;4133460;28;20004;-70
2024/03/09 10:33:51;;;;;;;;;;;;;;;13.71;42.67;98509.84;4132133;28;19914;-69
2024/03/09 10:35:53;;;;;;;;;;;;;;;14.14;41.82;98503.31;4147149;28;20008;-70
2024/03/09 10:37:57;;;;;;;;;;;;;;;14.39;41.72;98508.06;4132132;28;19968;-70
2024/03/09 10:39:57;;;;;;;;;;;;;;;14.02;42.06;98499.56;4130477;28;19980;-69
2024/03/09 10:41:58;;;;;;;;;;;;;;;14.21;41.69;98497.94;4132258;28;20350;-70